Empire State — WDE9268 — position and weather

sailwx.info

Track history (hours):
 
Tides and Currents Weather Stations Pressure Air Temp Water Temp Dewpoint Dewpoint Depression Visibility Wind Speed Wind Dir Waves Ship Positions

Empire State

Owner: Port Imperial Ferry, Weehawken, NJ. More information available from US FCC via Universal Licensing System and Coast Guard Vessel Documentation Center.

Last reported at 2018-Jan-22 18:30 UTC. Time now 2018-Jan-22 18:38 UTC.
Position N 40°44' W 074°02'.

Length 23 m; draft 2 m.

Type: Passenger vessel. MMSI: 367415390.

Date/timePositionNaut miles runAvg speedWind from/ knotsBaromVisibWave heightAir tempDewpointWater temp
2018-Jan-22 18:30N 40°44' W 074°02'0 0.0
2018-Jan-22 18:00N 40°44' W 074°02'0 0.0
2018-Jan-22 15:48N 40°44' W 074°02'2 7.6
2018-Jan-22 15:30N 40°46' W 074°01'0 0.0
2018-Jan-22 15:00N 40°46' W 074°01'2 4.5
2018-Jan-22 14:30N 40°44' W 074°02'0 0.1
2018-Jan-22 14:00N 40°44' W 074°02'2 4.0
2018-Jan-22 13:30N 40°42' W 074°00'1 2.0
2018-Jan-22 13:00N 40°43' W 074°02'1 2.7
2018-Jan-22 12:30N 40°44' W 074°02'2 4.1
2018-Jan-22 12:00N 40°42' W 074°00'1 2.1
2018-Jan-22 11:30N 40°43' W 074°02'1 2.6
2018-Jan-22 11:00N 40°44' W 074°02'  
2018-Jan-20 00:01N 40°44' W 074°02'0 0.0
2018-Jan-20 00:00N 40°44' W 074°02'1 2.9
2018-Jan-19 23:30N 40°43' W 074°01'1 2.0
2018-Jan-19 23:01N 40°42' W 074°00'2 4.5
2018-Jan-19 22:30N 40°44' W 074°02'2 4.5
2018-Jan-19 22:00N 40°42' W 074°01'1 1.2
2018-Jan-19 21:30N 40°42' W 074°00'2 4.4
2018-Jan-19 21:00N 40°44' W 074°02'1 2.4
2018-Jan-19 20:30N 40°43' W 074°01'2 4.8
2018-Jan-19 20:00N 40°45' W 074°01'1 1.9
2018-Jan-19 19:30N 40°46' W 074°01'0 0.0
2018-Jan-19 15:07N 40°46' W 074°01'0 2.4
2018-Jan-19 15:00N 40°47' W 074°01'0 0.5
2018-Jan-19 14:29N 40°46' W 074°01'3 5.2
2018-Jan-19 14:00N 40°44' W 074°01'2 3.5
2018-Jan-19 13:30N 40°46' W 074°00'4 8.6
2018-Jan-19 12:59N 40°50' W 073°58'4 7.6
2018-Jan-19 12:30N 40°46' W 074°00'0 0.0
2018-Jan-19 00:51N 40°46' W 074°01'2 6.7
2018-Jan-19 00:30N 40°44' W 074°02'1 2.2
2018-Jan-19 00:00N 40°43' W 074°01'1 2.4
2018-Jan-18 23:30N 40°42' W 074°00'2 4.3
2018-Jan-18 23:00N 40°44' W 074°02'1 1.9
2018-Jan-18 22:30N 40°43' W 074°01'1 2.7
2018-Jan-18 22:01N 40°42' W 074°00'2 4.2
2018-Jan-18 21:30N 40°44' W 074°02'1 2.5
2018-Jan-18 21:00N 40°43' W 074°01'1 2.5
2018-Jan-18 20:31N 40°44' W 074°01'1 2.3
2018-Jan-18 20:00N 40°43' W 074°02'1 2.3
2018-Jan-18 19:31N 40°44' W 074°02'1 2.2
2018-Jan-18 19:01N 40°43' W 074°01'4 1.0
2018-Jan-18 15:15N 40°47' W 074°01'1 3.4
2018-Jan-18 14:58N 40°46' W 074°01'3 7.5
2018-Jan-18 14:30N 40°42' W 074°00'1 2.1
2018-Jan-18 14:00N 40°43' W 074°01'0 0.6
2018-Jan-18 13:17N 40°42' W 074°01'1 3.2
2018-Jan-18 13:01N 40°42' W 074°00'1 2.8
2018-Jan-18 12:31N 40°43' W 074°02'1 1.7
2018-Jan-18 12:00N 40°44' W 074°02'2 0.2
2018-Jan-18 00:48N 40°46' W 074°01'3 4.3
2018-Jan-18 00:00N 40°43' W 074°01'114.9
2018-Jan-17 23:57N 40°44' W 074°01'  
Track history (hours):
 
Tides and Currents Weather Stations Pressure Air Temp Water Temp Dewpoint Dewpoint Depression Visibility Wind Speed Wind Dir Waves Ship Positions

Empire State

Owner: Port Imperial Ferry, Weehawken, NJ. More information available from US FCC via Universal Licensing System and Coast Guard Vessel Documentation Center.

Last reported at 2018-Jan-22 18:30 UTC. Time now 2018-Jan-22 18:38 UTC.
Position N 40°44' W 074°02'.

Length 23 m; draft 2 m.

Type: Passenger vessel. MMSI: 367415390.

Date/timePositionNaut miles runAvg speedWind from/ knotsBaromVisibWave heightAir tempDewpointWater temp
2018-Jan-22 18:30N 40°44' W 074°02'0 0.0
2018-Jan-22 18:00N 40°44' W 074°02'0 0.0
2018-Jan-22 15:48N 40°44' W 074°02'2 7.6
2018-Jan-22 15:30N 40°46' W 074°01'0 0.0
2018-Jan-22 15:00N 40°46' W 074°01'2 4.5
2018-Jan-22 14:30N 40°44' W 074°02'0 0.1
2018-Jan-22 14:00N 40°44' W 074°02'2 4.0
2018-Jan-22 13:30N 40°42' W 074°00'1 2.0
2018-Jan-22 13:00N 40°43' W 074°02'1 2.7
2018-Jan-22 12:30N 40°44' W 074°02'2 4.1
2018-Jan-22 12:00N 40°42' W 074°00'1 2.1
2018-Jan-22 11:30N 40°43' W 074°02'1 2.6
2018-Jan-22 11:00N 40°44' W 074°02'  
2018-Jan-20 00:01N 40°44' W 074°02'0 0.0
2018-Jan-20 00:00N 40°44' W 074°02'1 2.9
2018-Jan-19 23:30N 40°43' W 074°01'1 2.0
2018-Jan-19 23:01N 40°42' W 074°00'2 4.5
2018-Jan-19 22:30N 40°44' W 074°02'2 4.5
2018-Jan-19 22:00N 40°42' W 074°01'1 1.2
2018-Jan-19 21:30N 40°42' W 074°00'2 4.4
2018-Jan-19 21:00N 40°44' W 074°02'1 2.4
2018-Jan-19 20:30N 40°43' W 074°01'2 4.8
2018-Jan-19 20:00N 40°45' W 074°01'1 1.9
2018-Jan-19 19:30N 40°46' W 074°01'0 0.0
2018-Jan-19 15:07N 40°46' W 074°01'0 2.4
2018-Jan-19 15:00N 40°47' W 074°01'0 0.5
2018-Jan-19 14:29N 40°46' W 074°01'3 5.2
2018-Jan-19 14:00N 40°44' W 074°01'2 3.5
2018-Jan-19 13:30N 40°46' W 074°00'4 8.6
2018-Jan-19 12:59N 40°50' W 073°58'4 7.6
2018-Jan-19 12:30N 40°46' W 074°00'0 0.0
2018-Jan-19 00:51N 40°46' W 074°01'2 6.7
2018-Jan-19 00:30N 40°44' W 074°02'1 2.2
2018-Jan-19 00:00N 40°43' W 074°01'1 2.4
2018-Jan-18 23:30N 40°42' W 074°00'2 4.3
2018-Jan-18 23:00N 40°44' W 074°02'1 1.9
2018-Jan-18 22:30N 40°43' W 074°01'1 2.7
2018-Jan-18 22:01N 40°42' W 074°00'2 4.2
2018-Jan-18 21:30N 40°44' W 074°02'1 2.5
2018-Jan-18 21:00N 40°43' W 074°01'1 2.5
2018-Jan-18 20:31N 40°44' W 074°01'1 2.3
2018-Jan-18 20:00N 40°43' W 074°02'1 2.3
2018-Jan-18 19:31N 40°44' W 074°02'1 2.2
2018-Jan-18 19:01N 40°43' W 074°01'4 1.0
2018-Jan-18 15:15N 40°47' W 074°01'1 3.4
2018-Jan-18 14:58N 40°46' W 074°01'3 7.5
2018-Jan-18 14:30N 40°42' W 074°00'1 2.1
2018-Jan-18 14:00N 40°43' W 074°01'0 0.6
2018-Jan-18 13:17N 40°42' W 074°01'1 3.2
2018-Jan-18 13:01N 40°42' W 074°00'1 2.8
2018-Jan-18 12:31N 40°43' W 074°02'1 1.7
2018-Jan-18 12:00N 40°44' W 074°02'2 0.2
2018-Jan-18 00:48N 40°46' W 074°01'3 4.3
2018-Jan-18 00:00N 40°43' W 074°01'114.9
2018-Jan-17 23:57N 40°44' W 074°01'  

Dump ship's entire track history